Time;durP1;ratioP1;P1;durP2;ratioP2;P2;SDS_P1;SDS_P2;PMS_P1;PMS_P2;Temp;Humidity;BMP_temperature;BMP_pressure;BME280_temperature;BME280_humidity;BME280_pressure;Samples;Min_cycle;Max_cycle;Signal;HPM_P1;HPM_P2
2022/05/16 00:00:54;;;;;;;5.70;1.85;;;;;;;;;;8310123;28;20725;-57
2022/05/16 00:04:54;;;;;;;4.03;1.60;;;;;;;;;;8310797;28;20021;-59
2022/05/16 00:08:55;;;;;;;2.47;1.80;;;;;;;;;;8310126;28;20029;-64
2022/05/16 00:12:55;;;;;;;4.93;1.70;;;;;;;;;;8309650;28;20036;-57
2022/05/16 00:16:55;;;;;;;1.83;1.40;;;;;;;;;;8310116;28;20803;-57
2022/05/16 00:20:56;;;;;;;2.92;1.38;;;;;;;;;;8309980;28;20280;-57
2022/05/16 00:24:56;;;;;;;3.58;1.60;;;;;;;;;;8308078;28;20036;-57
2022/05/16 00:28:57;;;;;;;2.05;1.30;;;;;;;;;;8308809;28;20928;-57
2022/05/16 00:32:58;;;;;;;3.50;2.05;;;;;;;;;;8310195;28;20036;-57
2022/05/16 00:36:58;;;;;;;4.30;1.50;;;;;;;;;;8310918;28;20431;-57
2022/05/16 00:40:59;;;;;;;2.83;1.50;;;;;;;;;;8309908;28;20025;-57
2022/05/16 00:45:00;;;;;;;2.67;1.30;;;;;;;;;;8307873;28;20052;-59
2022/05/16 00:49:02;;;;;;;3.67;1.50;;;;;;;;;;8307990;28;20038;-57
2022/05/16 00:53:02;;;;;;;3.38;1.55;;;;;;;;;;8306997;28;20032;-57
2022/05/16 00:57:08;;;;;;;3.50;1.90;;;;;;;;;;8307747;28;20511;-57
2022/05/16 01:04:47;;;;;;;3.35;1.60;;;;;;;;;;8307587;28;20037;-57
2022/05/16 01:05:29;;;;;;;3.72;1.70;;;;;;;;;;8305623;28;20128;-56
2022/05/16 01:09:30;;;;;;;3.97;1.50;;;;;;;;;;8306150;28;20029;-57
2022/05/16 01:13:31;;;;;;;5.72;1.73;;;;;;;;;;8304282;28;20446;-57
2022/05/16 01:17:31;;;;;;;1.60;1.50;;;;;;;;;;8304532;28;20881;-57
2022/05/16 01:21:37;;;;;;;3.60;1.80;;;;;;;;;;8306726;28;20037;-57
2022/05/16 01:25:37;;;;;;;4.40;1.58;;;;;;;;;;8308085;28;20386;-57
2022/05/16 01:29:38;;;;;;;5.97;1.45;;;;;;;;;;8312635;28;20040;-59
2022/05/16 01:33:38;;;;;;;3.03;1.60;;;;;;;;;;8305865;28;20902;-57
2022/05/16 01:41:57;;;;;;;2.90;1.70;;;;;;;;;;8306227;28;20564;-57
2022/05/16 01:45:57;;;;;;;3.75;1.73;;;;;;;;;;8309159;28;20037;-57
2022/05/16 01:49:57;;;;;;;2.72;1.70;;;;;;;;;;8306814;28;20079;-57
2022/05/16 01:53:57;;;;;;;2.78;1.80;;;;;;;;;;8305909;28;20037;-57
2022/05/16 01:57:58;;;;;;;2.63;1.57;;;;;;;;;;8305323;28;20056;-57
2022/05/16 02:01:58;;;;;;;6.28;1.88;;;;;;;;;;8308933;28;20032;-59
2022/05/16 02:05:58;;;;;;;2.20;1.60;;;;;;;;;;8313652;28;20053;-57
2022/05/16 02:09:59;;;;;;;5.50;1.55;;;;;;;;;;8313764;28;20026;-57
2022/05/16 02:13:59;;;;;;;5.13;2.08;;;;;;;;;;8314305;28;20032;-57
2022/05/16 02:17:59;;;;;;;4.35;1.65;;;;;;;;;;8311435;28;20550;-57
2022/05/16 02:26:18;;;;;;;4.20;1.63;;;;;;;;;;8312759;28;20278;-57
2022/05/16 02:30:20;;;;;;;4.10;1.83;;;;;;;;;;8311602;28;20021;-57
2022/05/16 02:34:21;;;;;;;4.60;1.80;;;;;;;;;;8310520;28;20029;-57
2022/05/16 02:38:21;;;;;;;2.90;1.70;;;;;;;;;;8311358;28;20720;-57
2022/05/16 02:42:21;;;;;;;4.25;2.10;;;;;;;;;;8311998;28;20398;-57
2022/05/16 02:46:21;;;;;;;5.15;2.00;;;;;;;;;;8312283;28;20514;-57
2022/05/16 02:50:23;;;;;;;7.00;1.90;;;;;;;;;;8311826;28;20025;-57
2022/05/16 02:54:23;;;;;;;3.88;2.08;;;;;;;;;;8310080;28;20283;-58
2022/05/16 02:58:23;;;;;;;2.08;1.70;;;;;;;;;;8311372;28;20029;-56
2022/05/16 03:02:25;;;;;;;4.53;1.95;;;;;;;;;;8311254;28;20438;-57
2022/05/16 03:06:25;;;;;;;2.72;1.73;;;;;;;;;;8312957;28;20032;-57
2022/05/16 03:10:26;;;;;;;6.30;2.00;;;;;;;;;;8308720;28;20040;-57
2022/05/16 03:14:26;;;;;;;4.43;1.90;;;;;;;;;;8310982;28;20083;-56
2022/05/16 03:18:27;;;;;;;3.60;2.03;;;;;;;;;;8310827;28;20124;-56
2022/05/16 03:22:27;;;;;;;8.80;1.90;;;;;;;;;;8311608;28;20060;-56
2022/05/16 03:26:28;;;;;;;2.60;1.50;;;;;;;;;;8310177;28;20040;-56
2022/05/16 03:30:28;;;;;;;3.03;2.00;;;;;;;;;;8311551;28;20280;-56
2022/05/16 03:34:28;;;;;;;3.30;1.88;;;;;;;;;;8311201;28;20036;-57
2022/05/16 03:42:48;;;;;;;5.47;1.95;;;;;;;;;;8309796;28;20071;-57
2022/05/16 03:46:48;;;;;;;3.05;1.75;;;;;;;;;;8310857;28;20025;-57
2022/05/16 03:50:48;;;;;;;4.20;1.77;;;;;;;;;;8310581;28;20709;-57
2022/05/16 03:54:48;;;;;;;3.42;1.92;;;;;;;;;;8311408;28;20287;-57
2022/05/16 03:58:49;;;;;;;3.28;1.63;;;;;;;;;;8310408;28;20029;-57
2022/05/16 04:02:49;;;;;;;4.13;1.70;;;;;;;;;;8306516;28;20083;-57
2022/05/16 04:06:50;;;;;;;3.63;1.70;;;;;;;;;;8312292;28;20104;-57
2022/05/16 04:10:50;;;;;;;3.58;1.80;;;;;;;;;;8308802;28;20023;-57
2022/05/16 04:14:50;;;;;;;3.10;1.65;;;;;;;;;;8310451;28;20090;-57
2022/05/16 04:18:50;;;;;;;2.97;1.67;;;;;;;;;;8308129;28;20065;-57
2022/05/16 04:22:51;;;;;;;7.30;1.80;;;;;;;;;;8308460;28;20036;-58
2022/05/16 04:26:51;;;;;;;4.50;1.83;;;;;;;;;;8305921;28;20039;-57
2022/05/16 04:30:51;;;;;;;4.20;2.05;;;;;;;;;;8310772;28;20356;-59
2022/05/16 04:34:52;;;;;;;2.97;1.98;;;;;;;;;;8309238;28;20033;-56
2022/05/16 04:38:52;;;;;;;3.95;1.88;;;;;;;;;;8308710;28;20095;-58
2022/05/16 04:42:52;;;;;;;4.43;2.15;;;;;;;;;;8309483;28;20609;-58
2022/05/16 04:46:52;;;;;;;6.90;1.88;;;;;;;;;;8306315;28;20244;-57
2022/05/16 04:50:52;;;;;;;4.63;1.95;;;;;;;;;;8304288;28;20148;-58
2022/05/16 04:54:54;;;;;;;5.70;2.33;;;;;;;;;;8307256;28;20633;-58
2022/05/16 04:58:54;;;;;;;4.93;2.42;;;;;;;;;;8309409;28;20095;-58
2022/05/16 05:02:54;;;;;;;4.28;2.10;;;;;;;;;;8308739;28;20038;-57
2022/05/16 05:06:54;;;;;;;11.77;2.80;;;;;;;;;;8307421;28;20181;-57
2022/05/16 05:15:14;;;;;;;11.38;2.95;;;;;;;;;;8308970;28;20504;-58
2022/05/16 05:19:14;;;;;;;5.63;2.53;;;;;;;;;;8305362;28;20144;-57
2022/05/16 05:23:16;;;;;;;8.88;2.40;;;;;;;;;;8307983;28;20056;-57
2022/05/16 05:27:17;;;;;;;4.93;2.58;;;;;;;;;;8307257;28;20071;-58
2022/05/16 05:31:25;;;;;;;3.58;2.10;;;;;;;;;;8305920;28;20891;-57
2022/05/16 05:35:26;;;;;;;4.15;2.40;;;;;;;;;;8308250;28;20027;-57
2022/05/16 05:39:26;;;;;;;5.10;2.38;;;;;;;;;;8303815;28;20699;-57
2022/05/16 05:43:26;;;;;;;7.28;2.67;;;;;;;;;;8298247;28;20501;-57
2022/05/16 05:47:27;;;;;;;5.45;2.10;;;;;;;;;;8299138;28;20407;-58
2022/05/16 05:51:27;;;;;;;7.07;2.38;;;;;;;;;;8302583;28;20036;-58
2022/05/16 05:55:27;;;;;;;6.85;2.47;;;;;;;;;;8305636;28;20044;-57
2022/05/16 05:59:28;;;;;;;6.27;2.03;;;;;;;;;;8307340;28;20548;-59
2022/05/16 06:03:28;;;;;;;8.07;2.50;;;;;;;;;;8303788;28;20045;-58
2022/05/16 06:07:28;;;;;;;6.93;2.70;;;;;;;;;;8307199;28;20033;-58
2022/05/16 06:11:28;;;;;;;6.70;2.60;;;;;;;;;;8306600;28;20286;-60
2022/05/16 06:15:29;;;;;;;4.18;2.50;;;;;;;;;;8304370;28;20098;-61
2022/05/16 06:19:29;;;;;;;5.83;2.30;;;;;;;;;;8306436;28;20069;-57
2022/05/16 06:23:29;;;;;;;6.65;2.58;;;;;;;;;;8304218;28;20174;-60
2022/05/16 06:27:31;;;;;;;4.68;2.78;;;;;;;;;;8303194;28;20031;-67
2022/05/16 06:31:31;;;;;;;10.38;2.78;;;;;;;;;;8305279;28;20156;-58
2022/05/16 06:35:32;;;;;;;8.90;2.77;;;;;;;;;;8305236;28;20048;-58
2022/05/16 06:39:33;;;;;;;8.82;2.60;;;;;;;;;;8307166;28;20035;-58
2022/05/16 06:43:34;;;;;;;6.05;2.53;;;;;;;;;;8304073;28;20436;-58
2022/05/16 06:47:35;;;;;;;3.85;2.25;;;;;;;;;;8306568;28;20077;-58
2022/05/16 06:51:36;;;;;;;7.38;2.50;;;;;;;;;;8309598;28;20037;-59
2022/05/16 06:55:36;;;;;;;7.00;2.33;;;;;;;;;;8313545;28;20041;-59
2022/05/16 06:59:36;;;;;;;5.07;2.33;;;;;;;;;;8312154;28;20041;-58
2022/05/16 07:03:38;;;;;;;7.18;2.60;;;;;;;;;;8310557;28;20048;-59
2022/05/16 07:07:38;;;;;;;9.35;2.28;;;;;;;;;;8311481;28;20018;-59
2022/05/16 07:11:38;;;;;;;8.10;2.35;;;;;;;;;;8309152;28;20116;-59
2022/05/16 07:15:38;;;;;;;6.33;2.57;;;;;;;;;;8311480;28;20041;-60
2022/05/16 07:19:38;;;;;;;5.65;2.60;;;;;;;;;;8312614;28;20891;-59
2022/05/16 07:23:39;;;;;;;5.55;2.30;;;;;;;;;;8310203;28;20025;-60
2022/05/16 07:27:57;;;;;;;4.43;2.38;;;;;;;;;;8311468;28;20033;-59
2022/05/16 07:31:57;;;;;;;4.72;2.40;;;;;;;;;;8309576;28;20041;-59
2022/05/16 07:35:58;;;;;;;5.88;2.30;;;;;;;;;;8310146;28;20761;-59
2022/05/16 07:39:58;;;;;;;12.57;2.77;;;;;;;;;;8309341;28;20021;-60
2022/05/16 07:43:58;;;;;;;10.05;2.60;;;;;;;;;;8312092;28;20110;-59
2022/05/16 07:48:03;;;;;;;6.53;2.55;;;;;;;;;;8308985;28;20071;-59
2022/05/16 07:52:03;;;;;;;9.55;2.83;;;;;;;;;;8309224;28;20026;-59
2022/05/16 07:56:03;;;;;;;10.48;2.72;;;;;;;;;;8309128;28;20834;-59
2022/05/16 08:00:04;;;;;;;6.32;2.45;;;;;;;;;;8305806;28;20025;-60
2022/05/16 08:04:06;;;;;;;8.15;2.65;;;;;;;;;;8308727;28;20108;-59
2022/05/16 08:12:26;;;;;;;9.57;2.53;;;;;;;;;;8308133;28;20051;-59
2022/05/16 08:16:27;;;;;;;5.60;2.70;;;;;;;;;;8306483;28;20080;-59
2022/05/16 08:20:27;;;;;;;8.90;2.88;;;;;;;;;;8310294;28;20033;-59
2022/05/16 08:24:28;;;;;;;6.53;2.70;;;;;;;;;;8304434;28;20036;-59
2022/05/16 08:28:28;;;;;;;7.70;3.13;;;;;;;;;;8306557;28;20673;-59
2022/05/16 08:32:29;;;;;;;7.75;2.70;;;;;;;;;;8307678;28;20052;-59
2022/05/16 08:40:58;;;;;;;8.95;3.08;;;;;;;;;;8307996;28;20039;-59
2022/05/16 08:45:11;;;;;;;11.75;2.90;;;;;;;;;;8305383;28;20136;-59
2022/05/16 08:49:24;;;;;;;7.97;2.70;;;;;;;;;;8305035;28;20045;-60
2022/05/16 08:53:30;;;;;;;5.72;2.85;;;;;;;;;;8305672;28;20403;-59
2022/05/16 08:57:32;;;;;;;7.80;3.00;;;;;;;;;;8305823;28;20032;-59
2022/05/16 09:01:43;;;;;;;7.60;2.53;;;;;;;;;;8304835;28;20037;-59
2022/05/16 09:05:51;;;;;;;10.85;2.65;;;;;;;;;;8304709;28;20505;-60
2022/05/16 09:09:52;;;;;;;5.78;2.70;;;;;;;;;;8306163;28;20063;-59
2022/05/16 09:13:58;;;;;;;7.43;2.80;;;;;;;;;;8304515;28;20059;-59
2022/05/16 09:18:04;;;;;;;7.68;2.45;;;;;;;;;;8304948;28;20557;-59
2022/05/16 09:22:17;;;;;;;7.28;2.80;;;;;;;;;;8302879;28;20027;-60
2022/05/16 09:26:33;;;;;;;5.80;2.72;;;;;;;;;;8304716;28;20055;-60
2022/05/16 09:30:33;;;;;;;7.43;2.70;;;;;;;;;;8304536;28;20119;-59
2022/05/16 09:34:34;;;;;;;19.10;3.87;;;;;;;;;;8304331;28;20112;-59
2022/05/16 09:38:34;;;;;;;8.45;2.70;;;;;;;;;;8303647;28;20398;-59
2022/05/16 09:42:35;;;;;;;9.33;2.70;;;;;;;;;;8303287;28;20769;-59
2022/05/16 09:46:37;;;;;;;9.70;2.50;;;;;;;;;;8300997;28;20363;-60
2022/05/16 09:50:37;;;;;;;8.20;2.85;;;;;;;;;;8297227;28;20028;-60
2022/05/16 09:54:37;;;;;;;10.63;2.80;;;;;;;;;;8295440;28;20033;-59
2022/05/16 09:58:47;;;;;;;6.50;3.03;;;;;;;;;;8296931;28;20091;-59
2022/05/16 10:02:55;;;;;;;8.35;3.00;;;;;;;;;;8295723;28;20068;-59
2022/05/16 10:06:56;;;;;;;6.57;2.58;;;;;;;;;;8297276;28;20152;-60
2022/05/16 10:10:58;;;;;;;4.78;2.45;;;;;;;;;;8296398;28;20084;-59
2022/05/16 10:14:58;;;;;;;8.73;2.93;;;;;;;;;;8296839;28;20100;-59
2022/05/16 10:19:03;;;;;;;9.53;2.90;;;;;;;;;;8295406;28;20041;-59
2022/05/16 10:23:05;;;;;;;11.13;2.83;;;;;;;;;;8300396;28;20036;-59
2022/05/16 10:27:07;;;;;;;9.02;2.58;;;;;;;;;;8301336;28;20043;-59
2022/05/16 10:35:32;;;;;;;8.80;2.35;;;;;;;;;;8303538;28;20044;-58
2022/05/16 10:39:34;;;;;;;7.13;2.63;;;;;;;;;;8302471;28;20041;-59
2022/05/16 10:43:34;;;;;;;6.15;2.40;;;;;;;;;;8305085;28;20636;-59
2022/05/16 10:47:40;;;;;;;9.23;3.03;;;;;;;;;;8307599;28;20041;-59
2022/05/16 10:51:43;;;;;;;8.15;2.67;;;;;;;;;;8308416;28;20033;-59
2022/05/16 10:55:58;;;;;;;7.30;2.30;;;;;;;;;;8305873;28;20351;-59
2022/05/16 10:59:59;;;;;;;12.52;2.60;;;;;;;;;;8306468;28;20071;-59
2022/05/16 11:04:26;;;;;;;6.57;2.33;;;;;;;;;;8306822;28;20700;-60
2022/05/16 11:08:26;;;;;;;9.73;1.80;;;;;;;;;;8306664;28;20040;-60
2022/05/16 11:12:34;;;;;;;11.63;2.20;;;;;;;;;;8305632;28;20737;-59
2022/05/16 11:16:35;;;;;;;9.45;2.40;;;;;;;;;;8307708;28;20513;-60
2022/05/16 11:20:37;;;;;;;15.77;2.22;;;;;;;;;;8308274;28;20037;-59
2022/05/16 11:24:43;;;;;;;14.57;2.63;;;;;;;;;;8306983;28;20025;-59
2022/05/16 11:33:38;;;;;;;7.55;1.98;;;;;;;;;;8304213;28;20091;-60
2022/05/16 11:37:47;;;;;;;6.88;1.85;;;;;;;;;;8300879;28;20091;-59
2022/05/16 11:42:07;;;;;;;10.20;2.10;;;;;;;;;;8307427;28;20484;-60
2022/05/16 11:46:10;;;;;;;9.25;2.47;;;;;;;;;;8304900;28;20334;-60
2022/05/16 11:50:10;;;;;;;5.40;1.60;;;;;;;;;;8307082;28;20064;-59
2022/05/16 11:54:13;;;;;;;14.32;2.05;;;;;;;;;;8307874;28;20490;-59
2022/05/16 12:02:40;;;;;;;4.40;1.67;;;;;;;;;;8304685;28;21003;-60
2022/05/16 12:06:45;;;;;;;4.35;1.70;;;;;;;;;;8309658;28;20052;-59
2022/05/16 12:10:57;;;;;;;3.95;1.52;;;;;;;;;;8308697;28;20032;-59
2022/05/16 12:15:15;;;;;;;4.97;1.50;;;;;;;;;;8309760;28;20116;-60
2022/05/16 12:19:24;;;;;;;4.20;1.40;;;;;;;;;;8308459;28;20540;-60
2022/05/16 12:23:43;;;;;;;4.50;1.48;;;;;;;;;;8308550;28;20033;-60
2022/05/16 12:27:45;;;;;;;4.03;1.50;;;;;;;;;;8306958;28;20159;-59
2022/05/16 12:31:45;;;;;;;4.63;1.70;;;;;;;;;;8307609;28;20033;-59
2022/05/16 12:35:46;;;;;;;5.38;1.45;;;;;;;;;;8307778;28;20028;-60
2022/05/16 12:40:05;;;;;;;7.68;1.90;;;;;;;;;;8304848;28;20674;-60
2022/05/16 12:44:24;;;;;;;3.80;1.40;;;;;;;;;;8305550;28;20087;-59
2022/05/16 12:48:38;;;;;;;4.88;1.60;;;;;;;;;;8305793;28;20041;-59
2022/05/16 12:52:39;;;;;;;6.07;1.48;;;;;;;;;;8304351;28;20033;-60
2022/05/16 12:56:50;;;;;;;6.35;1.60;;;;;;;;;;8303328;28;20683;-60
2022/05/16 13:01:09;;;;;;;4.78;1.33;;;;;;;;;;8304515;28;20094;-60
2022/05/16 13:05:23;;;;;;;4.60;1.50;;;;;;;;;;8304360;28;20643;-59
2022/05/16 13:09:33;;;;;;;10.45;1.63;;;;;;;;;;8305601;28;20029;-59
2022/05/16 13:13:56;;;;;;;10.18;1.73;;;;;;;;;;8302541;28;20532;-59
2022/05/16 13:17:58;;;;;;;4.90;1.50;;;;;;;;;;8302706;28;20045;-60
2022/05/16 13:22:06;;;;;;;9.20;1.70;;;;;;;;;;8305222;28;20163;-58
2022/05/16 13:30:27;;;;;;;4.07;1.42;;;;;;;;;;8304453;28;20916;-59
2022/05/16 13:34:27;;;;;;;5.95;1.50;;;;;;;;;;8304075;28;20128;-59
2022/05/16 13:38:35;;;;;;;8.10;1.98;;;;;;;;;;8303840;28;20025;-59
2022/05/16 13:42:37;;;;;;;6.05;1.40;;;;;;;;;;8302057;28;20037;-59
2022/05/16 13:46:38;;;;;;;3.55;1.63;;;;;;;;;;8300275;28;20037;-60
2022/05/16 13:50:39;;;;;;;7.00;1.93;;;;;;;;;;8300936;28;20025;-58
2022/05/16 13:54:40;;;;;;;8.95;2.00;;;;;;;;;;8302505;28;20577;-59
2022/05/16 13:58:41;;;;;;;3.75;1.80;;;;;;;;;;8300006;28;20029;-58
2022/05/16 14:02:41;;;;;;;5.28;2.00;;;;;;;;;;8303794;28;20048;-60
2022/05/16 14:06:50;;;;;;;5.50;1.98;;;;;;;;;;8301199;28;20159;-59
2022/05/16 14:10:50;;;;;;;7.03;2.00;;;;;;;;;;8302624;28;20673;-58
2022/05/16 14:14:52;;;;;;;4.45;2.42;;;;;;;;;;8300493;28;20032;-58
2022/05/16 14:19:04;;;;;;;6.82;2.30;;;;;;;;;;8303312;28;20132;-60
2022/05/16 14:23:13;;;;;;;8.33;2.30;;;;;;;;;;8300637;28;20025;-58
2022/05/16 14:27:20;;;;;;;4.38;2.00;;;;;;;;;;8303267;28;20025;-58
2022/05/16 14:31:25;;;;;;;7.05;2.42;;;;;;;;;;8300481;28;20029;-59
2022/05/16 14:35:29;;;;;;;5.50;2.10;;;;;;;;;;8304005;28;20060;-58
2022/05/16 14:39:31;;;;;;;6.18;2.33;;;;;;;;;;8302673;28;20372;-59
2022/05/16 14:43:34;;;;;;;9.02;2.58;;;;;;;;;;8303387;28;20082;-59
2022/05/16 14:47:40;;;;;;;7.35;2.03;;;;;;;;;;8299419;28;20144;-58
2022/05/16 14:51:41;;;;;;;8.57;2.50;;;;;;;;;;8303339;28;20057;-58
2022/05/16 14:55:46;;;;;;;10.38;2.60;;;;;;;;;;8301917;28;20037;-58
2022/05/16 14:59:46;;;;;;;9.18;2.42;;;;;;;;;;8302448;28;20937;-58
2022/05/16 15:04:05;;;;;;;6.38;2.13;;;;;;;;;;8299370;28;20033;-58
2022/05/16 15:08:05;;;;;;;7.50;2.67;;;;;;;;;;8304384;28;20411;-58
2022/05/16 15:12:08;;;;;;;6.97;2.10;;;;;;;;;;8302240;28;20076;-58
2022/05/16 15:16:08;;;;;;;4.88;2.20;;;;;;;;;;8308304;28;20037;-58
2022/05/16 15:20:09;;;;;;;5.40;2.30;;;;;;;;;;8309699;28;20512;-58
2022/05/16 15:24:11;;;;;;;5.18;2.22;;;;;;;;;;8305629;28;20024;-59
2022/05/16 15:28:12;;;;;;;5.00;2.10;;;;;;;;;;8307363;28;20453;-58
2022/05/16 15:32:14;;;;;;;5.93;2.30;;;;;;;;;;8308224;28;20521;-57
2022/05/16 15:36:14;;;;;;;4.95;2.22;;;;;;;;;;8306945;28;20025;-58
2022/05/16 15:40:15;;;;;;;7.97;2.60;;;;;;;;;;8306345;28;20776;-59
2022/05/16 15:44:16;;;;;;;9.02;2.25;;;;;;;;;;8308133;28;20030;-58
2022/05/16 15:48:17;;;;;;;4.57;2.20;;;;;;;;;;8306410;28;20029;-57
2022/05/16 15:52:18;;;;;;;5.88;2.50;;;;;;;;;;8306035;28;20016;-57
2022/05/16 15:56:18;;;;;;;7.80;2.25;;;;;;;;;;8304936;28;20057;-59
2022/05/16 16:00:21;;;;;;;3.63;2.10;;;;;;;;;;8305905;28;20026;-57
2022/05/16 16:08:40;;;;;;;6.43;2.38;;;;;;;;;;8306764;28;20051;-58
2022/05/16 16:12:41;;;;;;;4.23;2.17;;;;;;;;;;8306606;28;20132;-58
2022/05/16 16:16:42;;;;;;;3.53;2.20;;;;;;;;;;8304792;28;20033;-57
2022/05/16 16:20:43;;;;;;;5.10;2.30;;;;;;;;;;8302759;28;20039;-57
2022/05/16 16:24:44;;;;;;;4.85;2.40;;;;;;;;;;8307160;28;20148;-57
2022/05/16 16:28:44;;;;;;;5.60;2.40;;;;;;;;;;8308457;28;20493;-58
2022/05/16 16:32:45;;;;;;;6.37;2.40;;;;;;;;;;8304826;28;20041;-57
2022/05/16 16:36:45;;;;;;;5.25;2.58;;;;;;;;;;8306293;28;20037;-57
2022/05/16 16:40:48;;;;;;;4.82;2.25;;;;;;;;;;8305511;28;20025;-58
2022/05/16 16:44:49;;;;;;;3.65;2.33;;;;;;;;;;8305108;28;20028;-58
2022/05/16 16:48:50;;;;;;;7.28;2.92;;;;;;;;;;8303337;28;20033;-61
2022/05/16 16:57:27;;;;;;;6.35;2.55;;;;;;;;;;8304389;28;20039;-57
2022/05/16 17:01:28;;;;;;;7.38;2.53;;;;;;;;;;8306630;28;20721;-58
2022/05/16 17:05:29;;;;;;;8.82;2.80;;;;;;;;;;8308155;28;20153;-57
2022/05/16 17:09:29;;;;;;;8.65;3.00;;;;;;;;;;8308100;28;20040;-57
2022/05/16 17:13:31;;;;;;;4.93;2.47;;;;;;;;;;8306314;28;20667;-58
2022/05/16 17:17:32;;;;;;;9.57;2.85;;;;;;;;;;8303377;28;20499;-58
2022/05/16 17:21:32;;;;;;;7.50;2.60;;;;;;;;;;8304783;28;20831;-58
2022/05/16 17:25:33;;;;;;;4.63;2.55;;;;;;;;;;8303935;28;20029;-57
2022/05/16 17:29:33;;;;;;;9.45;2.60;;;;;;;;;;8307538;28;20036;-58
2022/05/16 17:33:34;;;;;;;7.90;2.87;;;;;;;;;;8305716;28;20049;-57
2022/05/16 17:37:34;;;;;;;9.23;2.88;;;;;;;;;;8306835;28;20061;-59
2022/05/16 17:41:35;;;;;;;7.13;2.90;;;;;;;;;;8305475;28;20039;-58
2022/05/16 17:45:37;;;;;;;4.30;2.50;;;;;;;;;;8303626;28;20506;-58
2022/05/16 17:49:40;;;;;;;8.95;2.72;;;;;;;;;;8304963;28;20075;-60
2022/05/16 17:53:40;;;;;;;5.65;2.88;;;;;;;;;;8304799;28;20686;-58
2022/05/16 17:57:41;;;;;;;6.95;2.72;;;;;;;;;;8305929;28;20020;-58
2022/05/16 18:01:42;;;;;;;11.15;3.13;;;;;;;;;;8303627;28;20164;-57
2022/05/16 18:05:43;;;;;;;6.65;2.70;;;;;;;;;;8305298;28;20549;-60
2022/05/16 18:09:43;;;;;;;10.00;2.78;;;;;;;;;;8301428;28;20515;-57
2022/05/16 18:13:43;;;;;;;7.77;2.80;;;;;;;;;;8303280;28;20025;-57
2022/05/16 18:17:44;;;;;;;4.55;2.78;;;;;;;;;;8300986;28;20263;-57
2022/05/16 18:21:45;;;;;;;8.48;3.33;;;;;;;;;;8304170;28;20037;-57
2022/05/16 18:25:46;;;;;;;9.40;2.85;;;;;;;;;;8303446;28;20043;-57
2022/05/16 18:29:46;;;;;;;6.93;2.90;;;;;;;;;;8306499;28;20269;-57
2022/05/16 18:33:46;;;;;;;4.75;2.90;;;;;;;;;;8300682;28;20166;-57
2022/05/16 18:37:46;;;;;;;7.38;2.67;;;;;;;;;;8302732;28;20024;-59
2022/05/16 18:50:45;;;;;;;7.95;2.90;;;;;;;;;;8315165;28;20060;-59
2022/05/16 18:54:45;;;;;;;6.32;2.63;;;;;;;;;;8309746;28;20045;-59
2022/05/16 18:58:45;;;;;;;6.80;2.55;;;;;;;;;;8308232;28;20032;-57
2022/05/16 19:02:45;;;;;;;7.23;2.73;;;;;;;;;;8307142;28;20040;-57
2022/05/16 19:06:46;;;;;;;6.65;2.72;;;;;;;;;;8307726;28;21094;-58
2022/05/16 19:10:47;;;;;;;7.32;3.08;;;;;;;;;;8305028;28;20416;-57
2022/05/16 19:14:48;;;;;;;7.47;2.67;;;;;;;;;;8308122;28;20033;-58
2022/05/16 19:18:48;;;;;;;3.78;2.78;;;;;;;;;;8307785;28;20049;-57
2022/05/16 19:22:48;;;;;;;4.13;2.72;;;;;;;;;;8307387;28;20167;-57
2022/05/16 19:26:49;;;;;;;3.20;2.40;;;;;;;;;;8306358;28;20825;-58
2022/05/16 19:35:09;;;;;;;3.38;2.70;;;;;;;;;;8306147;28;20817;-58
2022/05/16 19:39:10;;;;;;;4.35;2.60;;;;;;;;;;8305397;28;20029;-57
2022/05/16 19:43:10;;;;;;;4.95;2.80;;;;;;;;;;8304975;28;20086;-57
2022/05/16 19:47:11;;;;;;;7.82;2.78;;;;;;;;;;8306413;28;20577;-57
2022/05/16 19:51:12;;;;;;;5.72;2.53;;;;;;;;;;8307403;28;20137;-57
2022/05/16 19:55:12;;;;;;;7.15;3.03;;;;;;;;;;8304703;28;20025;-57
2022/05/16 19:59:12;;;;;;;5.82;2.80;;;;;;;;;;8305807;28;20083;-58
2022/05/16 20:03:13;;;;;;;6.80;2.80;;;;;;;;;;8305262;28;20038;-57
2022/05/16 20:07:13;;;;;;;5.72;3.10;;;;;;;;;;8306071;28;20082;-57
2022/05/16 20:11:14;;;;;;;4.40;3.35;;;;;;;;;;8305050;28;20833;-59
2022/05/16 20:15:14;;;;;;;4.45;3.10;;;;;;;;;;8303710;28;20053;-58
2022/05/16 20:19:16;;;;;;;8.30;3.33;;;;;;;;;;8305144;28;20094;-57
2022/05/16 20:27:35;;;;;;;6.18;3.72;;;;;;;;;;8305361;28;20102;-57
2022/05/16 20:31:37;;;;;;;7.13;3.15;;;;;;;;;;8303999;28;20069;-57
2022/05/16 20:35:38;;;;;;;7.68;3.67;;;;;;;;;;8304794;28;20068;-58
2022/05/16 20:39:38;;;;;;;6.82;3.10;;;;;;;;;;8306447;28;20803;-58
2022/05/16 20:43:39;;;;;;;7.75;3.53;;;;;;;;;;8304336;28;20036;-57
2022/05/16 20:47:39;;;;;;;5.35;3.28;;;;;;;;;;8303924;28;20030;-58
2022/05/16 20:51:40;;;;;;;5.85;3.20;;;;;;;;;;8305200;28;20386;-58
2022/05/16 20:55:40;;;;;;;6.25;3.20;;;;;;;;;;8301334;28;20390;-57
2022/05/16 20:59:41;;;;;;;9.15;3.58;;;;;;;;;;8305377;28;20568;-57
2022/05/16 21:03:41;;;;;;;8.05;3.67;;;;;;;;;;8303666;28;20037;-57
2022/05/16 21:07:41;;;;;;;8.25;3.40;;;;;;;;;;8303472;28;20029;-57
2022/05/16 21:11:41;;;;;;;5.85;3.63;;;;;;;;;;8303791;28;20017;-57
2022/05/16 21:15:43;;;;;;;5.05;3.03;;;;;;;;;;8304266;28;20040;-57
2022/05/16 21:19:43;;;;;;;7.07;3.35;;;;;;;;;;8303316;28;20041;-59
2022/05/16 21:23:43;;;;;;;5.30;3.40;;;;;;;;;;8302633;28;20035;-59
2022/05/16 21:27:44;;;;;;;8.35;3.20;;;;;;;;;;8300448;28;20029;-57
2022/05/16 21:31:44;;;;;;;12.23;3.57;;;;;;;;;;8302763;28;20065;-59
2022/05/16 21:35:44;;;;;;;6.47;3.00;;;;;;;;;;8303560;28;20018;-57
2022/05/16 21:39:44;;;;;;;4.28;2.92;;;;;;;;;;8303731;28;20051;-57
2022/05/16 21:48:04;;;;;;;4.57;3.30;;;;;;;;;;8304309;28;20045;-57
2022/05/16 21:52:05;;;;;;;4.43;3.10;;;;;;;;;;8301621;28;20021;-57
2022/05/16 21:56:05;;;;;;;5.93;2.95;;;;;;;;;;8302541;28;20036;-57
2022/05/16 22:00:12;;;;;;;4.82;3.42;;;;;;;;;;8300768;28;20647;-57
2022/05/16 22:04:13;;;;;;;4.88;2.80;;;;;;;;;;8303683;28;20025;-58
2022/05/16 22:08:15;;;;;;;6.13;3.15;;;;;;;;;;8301346;28;20802;-56
2022/05/16 22:12:15;;;;;;;8.18;3.45;;;;;;;;;;8303618;28;20037;-57
2022/05/16 22:16:16;;;;;;;3.90;3.30;;;;;;;;;;8301408;28;20564;-58
2022/05/16 22:20:16;;;;;;;7.40;3.10;;;;;;;;;;8306976;28;20025;-57
2022/05/16 22:24:18;;;;;;;5.45;3.25;;;;;;;;;;8309968;28;20446;-57
2022/05/16 22:28:18;;;;;;;4.85;3.10;;;;;;;;;;8311532;28;20024;-57
2022/05/16 22:32:18;;;;;;;6.47;2.97;;;;;;;;;;8306175;28;20048;-57
2022/05/16 22:36:19;;;;;;;5.87;3.33;;;;;;;;;;8308073;28;20552;-57
2022/05/16 22:40:20;;;;;;;6.53;3.45;;;;;;;;;;8305486;28;20040;-57
2022/05/16 22:44:20;;;;;;;5.93;3.45;;;;;;;;;;8310140;28;20025;-57
2022/05/16 22:48:21;;;;;;;6.38;3.50;;;;;;;;;;8308246;28;20052;-57
2022/05/16 22:52:21;;;;;;;6.47;3.45;;;;;;;;;;8309309;28;20025;-57
2022/05/16 22:56:21;;;;;;;6.82;3.45;;;;;;;;;;8308444;28;20063;-57
2022/05/16 23:00:21;;;;;;;4.95;3.22;;;;;;;;;;8307373;28;20013;-57
2022/05/16 23:04:21;;;;;;;5.75;3.40;;;;;;;;;;8307403;28;20394;-57
2022/05/16 23:08:22;;;;;;;4.65;3.17;;;;;;;;;;8307806;28;20444;-57
2022/05/16 23:12:23;;;;;;;5.07;3.40;;;;;;;;;;8307003;28;20052;-57
2022/05/16 23:16:23;;;;;;;5.63;3.63;;;;;;;;;;8306740;28;20283;-57
2022/05/16 23:20:23;;;;;;;6.63;3.50;;;;;;;;;;8308454;28;20478;-57
2022/05/16 23:24:24;;;;;;;6.10;3.45;;;;;;;;;;8309239;28;20549;-57
2022/05/16 23:28:24;;;;;;;6.97;3.45;;;;;;;;;;8307276;28;20025;-59
2022/05/16 23:32:25;;;;;;;6.32;3.83;;;;;;;;;;8308063;28;20044;-57
2022/05/16 23:36:25;;;;;;;5.75;3.40;;;;;;;;;;8307189;28;20038;-57
2022/05/16 23:40:25;;;;;;;5.80;3.50;;;;;;;;;;8307086;28;20037;-57
2022/05/16 23:44:27;;;;;;;7.05;3.63;;;;;;;;;;8306818;28;20728;-59
2022/05/16 23:48:27;;;;;;;5.65;3.80;;;;;;;;;;8307587;28;20476;-57
2022/05/16 23:52:27;;;;;;;7.15;3.70;;;;;;;;;;8306750;28;20029;-58
2022/05/16 23:56:28;;;;;;;5.83;3.60;;;;;;;;;;8308287;28;20033;-57
